sensor_id;sensor_type;location;lat;lon;timestamp;temperature;humidity
18876;DHT22;9570;50.854;13.778;2023-06-14T00:01:11;11.50;99.90
18876;DHT22;9570;50.854;13.778;2023-06-14T00:03:38;11.40;99.90
18876;DHT22;9570;50.854;13.778;2023-06-14T00:06:04;11.30;99.90
18876;DHT22;9570;50.854;13.778;2023-06-14T00:08:30;11.30;99.90
18876;DHT22;9570;50.854;13.778;2023-06-14T00:10:55;11.20;99.90
18876;DHT22;9570;50.854;13.778;2023-06-14T00:13:21;11.20;99.90
18876;DHT22;9570;50.854;13.778;2023-06-14T00:15:46;11.10;99.90
18876;DHT22;9570;50.854;13.778;2023-06-14T00:20:39;11.10;99.90
18876;DHT22;9570;50.854;13.778;2023-06-14T00:23:07;11.00;99.90
18876;DHT22;9570;50.854;13.778;2023-06-14T00:25:32;10.90;99.90
18876;DHT22;9570;50.854;13.778;2023-06-14T00:27:58;10.90;99.90
18876;DHT22;9570;50.854;13.778;2023-06-14T00:30:24;10.90;99.90
18876;DHT22;9570;50.854;13.778;2023-06-14T00:32:49;10.90;99.90
18876;DHT22;9570;50.854;13.778;2023-06-14T00:35:15;10.90;99.90
18876;DHT22;9570;50.854;13.778;2023-06-14T00:37:41;10.70;99.90
18876;DHT22;9570;50.854;13.778;2023-06-14T00:40:07;10.60;99.90
18876;DHT22;9570;50.854;13.778;2023-06-14T00:42:33;10.50;99.90
18876;DHT22;9570;50.854;13.778;2023-06-14T00:44:59;10.60;99.90
18876;DHT22;9570;50.854;13.778;2023-06-14T00:47:25;10.60;99.90
18876;DHT22;9570;50.854;13.778;2023-06-14T00:49:53;10.60;99.90
18876;DHT22;9570;50.854;13.778;2023-06-14T00:52:19;10.40;99.90
18876;DHT22;9570;50.854;13.778;2023-06-14T00:54:45;10.50;99.90
18876;DHT22;9570;50.854;13.778;2023-06-14T00:57:12;10.50;99.90
18876;DHT22;9570;50.854;13.778;2023-06-14T00:59:44;10.40;99.90
18876;DHT22;9570;50.854;13.778;2023-06-14T01:02:10;10.30;99.90
18876;DHT22;9570;50.854;13.778;2023-06-14T01:04:37;10.30;99.90
18876;DHT22;9570;50.854;13.778;2023-06-14T01:09:51;10.30;99.90
18876;DHT22;9570;50.854;13.778;2023-06-14T01:14:54;10.30;99.90
18876;DHT22;9570;50.854;13.778;2023-06-14T01:17:21;10.30;99.90
18876;DHT22;9570;50.854;13.778;2023-06-14T01:19:48;10.20;99.90
18876;DHT22;9570;50.854;13.778;2023-06-14T01:22:14;10.20;99.90
18876;DHT22;9570;50.854;13.778;2023-06-14T01:24:41;10.20;99.90
18876;DHT22;9570;50.854;13.778;2023-06-14T01:27:12;10.20;99.90
18876;DHT22;9570;50.854;13.778;2023-06-14T01:29:38;10.10;99.90
18876;DHT22;9570;50.854;13.778;2023-06-14T01:32:04;10.10;99.90
18876;DHT22;9570;50.854;13.778;2023-06-14T01:34:30;10.00;99.90
18876;DHT22;9570;50.854;13.778;2023-06-14T01:36:56;10.00;99.90
18876;DHT22;9570;50.854;13.778;2023-06-14T01:39:23;10.00;99.90
18876;DHT22;9570;50.854;13.778;2023-06-14T01:41:49;10.00;99.90
18876;DHT22;9570;50.854;13.778;2023-06-14T01:44:16;9.90;99.90
18876;DHT22;9570;50.854;13.778;2023-06-14T01:46:43;9.90;99.90
18876;DHT22;9570;50.854;13.778;2023-06-14T01:49:09;9.80;99.90
18876;DHT22;9570;50.854;13.778;2023-06-14T01:51:34;9.80;99.90
18876;DHT22;9570;50.854;13.778;2023-06-14T01:54:00;9.90;99.90
18876;DHT22;9570;50.854;13.778;2023-06-14T01:56:26;9.80;99.90
18876;DHT22;9570;50.854;13.778;2023-06-14T01:58:52;9.70;99.90
18876;DHT22;9570;50.854;13.778;2023-06-14T02:01:19;9.60;99.90
18876;DHT22;9570;50.854;13.778;2023-06-14T02:03:46;9.60;99.90
18876;DHT22;9570;50.854;13.778;2023-06-14T02:06:12;9.60;99.90
18876;DHT22;9570;50.854;13.778;2023-06-14T02:08:37;9.60;99.90
18876;DHT22;9570;50.854;13.778;2023-06-14T02:11:03;9.60;99.90
18876;DHT22;9570;50.854;13.778;2023-06-14T02:13:28;9.60;99.90
18876;DHT22;9570;50.854;13.778;2023-06-14T02:15:54;9.60;99.90
18876;DHT22;9570;50.854;13.778;2023-06-14T02:18:20;9.60;99.90
18876;DHT22;9570;50.854;13.778;2023-06-14T02:20:47;9.50;99.90
18876;DHT22;9570;50.854;13.778;2023-06-14T02:23:12;9.40;99.90
18876;DHT22;9570;50.854;13.778;2023-06-14T02:25:38;9.30;99.90
18876;DHT22;9570;50.854;13.778;2023-06-14T02:28:05;9.20;99.90
18876;DHT22;9570;50.854;13.778;2023-06-14T02:30:30;9.20;99.90
18876;DHT22;9570;50.854;13.778;2023-06-14T02:32:56;9.20;99.90
18876;DHT22;9570;50.854;13.778;2023-06-14T02:35:22;9.20;99.90
18876;DHT22;9570;50.854;13.778;2023-06-14T02:37:49;9.30;99.90
18876;DHT22;9570;50.854;13.778;2023-06-14T02:40:16;9.30;99.90
18876;DHT22;9570;50.854;13.778;2023-06-14T02:42:41;9.20;99.90
18876;DHT22;9570;50.854;13.778;2023-06-14T02:45:07;9.20;99.90
18876;DHT22;9570;50.854;13.778;2023-06-14T02:47:33;9.20;99.90
18876;DHT22;9570;50.854;13.778;2023-06-14T02:49:59;9.20;99.90
18876;DHT22;9570;50.854;13.778;2023-06-14T02:52:24;9.20;99.90
18876;DHT22;9570;50.854;13.778;2023-06-14T02:54:50;9.10;99.90
18876;DHT22;9570;50.854;13.778;2023-06-14T02:57:16;9.10;99.90
18876;DHT22;9570;50.854;13.778;2023-06-14T02:59:41;9.10;99.90
18876;DHT22;9570;50.854;13.778;2023-06-14T03:02:07;9.10;99.90
18876;DHT22;9570;50.854;13.778;2023-06-14T03:04:32;9.10;99.90
18876;DHT22;9570;50.854;13.778;2023-06-14T03:07:02;9.10;99.90
18876;DHT22;9570;50.854;13.778;2023-06-14T03:09:28;9.10;99.90
18876;DHT22;9570;50.854;13.778;2023-06-14T03:11:54;9.10;99.90
18876;DHT22;9570;50.854;13.778;2023-06-14T03:14:19;9.10;99.90
18876;DHT22;9570;50.854;13.778;2023-06-14T03:16:46;9.10;99.90
18876;DHT22;9570;50.854;13.778;2023-06-14T03:19:12;9.10;99.90
18876;DHT22;9570;50.854;13.778;2023-06-14T03:21:37;9.10;99.90
18876;DHT22;9570;50.854;13.778;2023-06-14T03:24:04;9.10;99.90
18876;DHT22;9570;50.854;13.778;2023-06-14T03:26:29;9.10;99.90
18876;DHT22;9570;50.854;13.778;2023-06-14T03:28:56;9.10;99.90
18876;DHT22;9570;50.854;13.778;2023-06-14T03:31:22;9.10;99.90
18876;DHT22;9570;50.854;13.778;2023-06-14T03:33:49;9.10;99.90
18876;DHT22;9570;50.854;13.778;2023-06-14T03:36:14;9.10;99.90
18876;DHT22;9570;50.854;13.778;2023-06-14T03:38:40;9.10;99.90
18876;DHT22;9570;50.854;13.778;2023-06-14T03:41:05;9.10;99.90
18876;DHT22;9570;50.854;13.778;2023-06-14T03:43:31;9.10;99.90
18876;DHT22;9570;50.854;13.778;2023-06-14T03:45:56;9.10;99.90
18876;DHT22;9570;50.854;13.778;2023-06-14T03:48:22;9.10;99.90
18876;DHT22;9570;50.854;13.778;2023-06-14T03:50:47;9.10;99.90
18876;DHT22;9570;50.854;13.778;2023-06-14T03:53:13;9.20;99.90
18876;DHT22;9570;50.854;13.778;2023-06-14T03:55:38;9.20;99.90
18876;DHT22;9570;50.854;13.778;2023-06-14T03:58:04;9.20;99.90
18876;DHT22;9570;50.854;13.778;2023-06-14T04:00:30;9.20;99.90
18876;DHT22;9570;50.854;13.778;2023-06-14T04:02:55;9.10;99.90
18876;DHT22;9570;50.854;13.778;2023-06-14T04:05:21;9.20;99.90
18876;DHT22;9570;50.854;13.778;2023-06-14T04:07:46;9.20;99.90
18876;DHT22;9570;50.854;13.778;2023-06-14T04:10:15;9.20;99.90
18876;DHT22;9570;50.854;13.778;2023-06-14T04:12:41;9.20;99.90
18876;DHT22;9570;50.854;13.778;2023-06-14T04:15:07;9.20;99.90
18876;DHT22;9570;50.854;13.778;2023-06-14T04:17:34;9.30;99.90
18876;DHT22;9570;50.854;13.778;2023-06-14T04:20:00;9.30;99.90
18876;DHT22;9570;50.854;13.778;2023-06-14T04:22:26;9.30;99.90
18876;DHT22;9570;50.854;13.778;2023-06-14T04:24:55;9.40;99.90
18876;DHT22;9570;50.854;13.778;2023-06-14T04:27:25;9.40;99.90
18876;DHT22;9570;50.854;13.778;2023-06-14T04:29:52;9.40;99.90
18876;DHT22;9570;50.854;13.778;2023-06-14T04:32:26;9.50;99.90
18876;DHT22;9570;50.854;13.778;2023-06-14T04:34:57;9.50;99.90
18876;DHT22;9570;50.854;13.778;2023-06-14T04:37:24;9.50;99.90
18876;DHT22;9570;50.854;13.778;2023-06-14T04:39:50;9.50;99.90
18876;DHT22;9570;50.854;13.778;2023-06-14T04:42:17;9.50;99.90
18876;DHT22;9570;50.854;13.778;2023-06-14T04:44:46;9.60;99.90
18876;DHT22;9570;50.854;13.778;2023-06-14T04:47:13;9.50;99.90
18876;DHT22;9570;50.854;13.778;2023-06-14T04:49:39;9.60;99.90
18876;DHT22;9570;50.854;13.778;2023-06-14T04:52:06;9.70;99.90
18876;DHT22;9570;50.854;13.778;2023-06-14T04:54:33;9.80;99.90
18876;DHT22;9570;50.854;13.778;2023-06-14T04:56:59;9.80;99.90
18876;DHT22;9570;50.854;13.778;2023-06-14T04:59:25;9.80;99.90
18876;DHT22;9570;50.854;13.778;2023-06-14T05:01:51;9.90;99.90
18876;DHT22;9570;50.854;13.778;2023-06-14T05:04:17;9.90;99.90
18876;DHT22;9570;50.854;13.778;2023-06-14T05:06:43;10.00;99.90
18876;DHT22;9570;50.854;13.778;2023-06-14T05:09:13;9.90;99.90
18876;DHT22;9570;50.854;13.778;2023-06-14T05:11:39;10.00;99.90
18876;DHT22;9570;50.854;13.778;2023-06-14T05:14:05;10.10;99.90
18876;DHT22;9570;50.854;13.778;2023-06-14T05:16:31;10.20;99.90
18876;DHT22;9570;50.854;13.778;2023-06-14T05:18:57;10.20;99.90
18876;DHT22;9570;50.854;13.778;2023-06-14T05:21:23;10.30;99.90
18876;DHT22;9570;50.854;13.778;2023-06-14T05:23:48;10.30;99.90
18876;DHT22;9570;50.854;13.778;2023-06-14T05:26:14;10.40;99.90
18876;DHT22;9570;50.854;13.778;2023-06-14T05:28:40;10.50;99.90
18876;DHT22;9570;50.854;13.778;2023-06-14T05:31:05;10.60;99.90
18876;DHT22;9570;50.854;13.778;2023-06-14T05:33:31;10.70;99.90
18876;DHT22;9570;50.854;13.778;2023-06-14T05:35:56;10.80;99.90
18876;DHT22;9570;50.854;13.778;2023-06-14T05:38:22;10.90;99.90
18876;DHT22;9570;50.854;13.778;2023-06-14T05:40:47;11.00;99.90
18876;DHT22;9570;50.854;13.778;2023-06-14T05:43:12;11.20;99.90
18876;DHT22;9570;50.854;13.778;2023-06-14T05:45:38;11.40;99.90
18876;DHT22;9570;50.854;13.778;2023-06-14T05:48:04;11.60;99.90
18876;DHT22;9570;50.854;13.778;2023-06-14T05:50:29;12.20;99.90
18876;DHT22;9570;50.854;13.778;2023-06-14T05:52:55;13.40;99.90
18876;DHT22;9570;50.854;13.778;2023-06-14T05:55:21;14.70;99.90
18876;DHT22;9570;50.854;13.778;2023-06-14T05:57:47;15.80;99.90
18876;DHT22;9570;50.854;13.778;2023-06-14T06:00:13;16.70;99.90
18876;DHT22;9570;50.854;13.778;2023-06-14T06:02:43;17.30;99.90
18876;DHT22;9570;50.854;13.778;2023-06-14T06:05:10;18.20;99.90
18876;DHT22;9570;50.854;13.778;2023-06-14T06:07:36;19.00;99.90
18876;DHT22;9570;50.854;13.778;2023-06-14T06:10:03;19.70;99.90
18876;DHT22;9570;50.854;13.778;2023-06-14T06:12:29;20.20;99.90
18876;DHT22;9570;50.854;13.778;2023-06-14T06:14:54;19.80;99.90
18876;DHT22;9570;50.854;13.778;2023-06-14T06:17:20;20.20;99.90
18876;DHT22;9570;50.854;13.778;2023-06-14T06:19:46;20.90;99.90
18876;DHT22;9570;50.854;13.778;2023-06-14T06:22:11;21.20;99.90
18876;DHT22;9570;50.854;13.778;2023-06-14T06:24:37;21.40;99.90
18876;DHT22;9570;50.854;13.778;2023-06-14T06:27:03;21.70;99.90
18876;DHT22;9570;50.854;13.778;2023-06-14T06:29:28;21.40;99.90
18876;DHT22;9570;50.854;13.778;2023-06-14T06:31:54;21.40;99.90
18876;DHT22;9570;50.854;13.778;2023-06-14T06:34:21;21.90;99.90
18876;DHT22;9570;50.854;13.778;2023-06-14T06:36:47;22.30;99.90
18876;DHT22;9570;50.854;13.778;2023-06-14T06:39:12;22.50;99.90
18876;DHT22;9570;50.854;13.778;2023-06-14T06:41:38;22.60;99.90
18876;DHT22;9570;50.854;13.778;2023-06-14T06:44:05;22.40;99.90
18876;DHT22;9570;50.854;13.778;2023-06-14T06:46:32;22.70;99.90
18876;DHT22;9570;50.854;13.778;2023-06-14T06:48:58;23.00;99.90
18876;DHT22;9570;50.854;13.778;2023-06-14T06:51:24;23.00;99.90
18876;DHT22;9570;50.854;13.778;2023-06-14T06:53:53;23.60;99.90
18876;DHT22;9570;50.854;13.778;2023-06-14T06:56:19;23.80;99.90
18876;DHT22;9570;50.854;13.778;2023-06-14T06:58:45;24.10;99.90
18876;DHT22;9570;50.854;13.778;2023-06-14T07:01:10;24.00;99.90
18876;DHT22;9570;50.854;13.778;2023-06-14T07:03:37;24.10;99.90
18876;DHT22;9570;50.854;13.778;2023-06-14T07:06:02;24.10;99.90
18876;DHT22;9570;50.854;13.778;2023-06-14T07:08:28;24.00;99.90
18876;DHT22;9570;50.854;13.778;2023-06-14T07:10:53;24.10;99.90
18876;DHT22;9570;50.854;13.778;2023-06-14T07:13:19;24.10;99.90
18876;DHT22;9570;50.854;13.778;2023-06-14T07:15:44;24.20;99.90
18876;DHT22;9570;50.854;13.778;2023-06-14T07:18:10;24.00;99.90
18876;DHT22;9570;50.854;13.778;2023-06-14T07:20:35;23.00;99.90
18876;DHT22;9570;50.854;13.778;2023-06-14T07:23:03;23.50;99.90
18876;DHT22;9570;50.854;13.778;2023-06-14T07:25:29;23.30;99.90
18876;DHT22;9570;50.854;13.778;2023-06-14T07:27:54;23.60;99.90
18876;DHT22;9570;50.854;13.778;2023-06-14T07:30:20;24.00;99.90
18876;DHT22;9570;50.854;13.778;2023-06-14T07:32:46;24.70;99.90
18876;DHT22;9570;50.854;13.778;2023-06-14T07:35:11;24.50;99.90
18876;DHT22;9570;50.854;13.778;2023-06-14T07:37:37;24.60;99.90
18876;DHT22;9570;50.854;13.778;2023-06-14T07:40:03;24.80;99.90
18876;DHT22;9570;50.854;13.778;2023-06-14T07:42:33;25.00;99.90
18876;DHT22;9570;50.854;13.778;2023-06-14T07:45:00;24.80;99.90
18876;DHT22;9570;50.854;13.778;2023-06-14T07:47:25;24.90;99.90
18876;DHT22;9570;50.854;13.778;2023-06-14T07:49:51;24.40;99.90
18876;DHT22;9570;50.854;13.778;2023-06-14T07:52:16;24.10;99.90
18876;DHT22;9570;50.854;13.778;2023-06-14T07:54:42;24.50;99.90
18876;DHT22;9570;50.854;13.778;2023-06-14T07:57:08;24.50;99.90
18876;DHT22;9570;50.854;13.778;2023-06-14T07:59:34;24.60;99.90
18876;DHT22;9570;50.854;13.778;2023-06-14T08:01:59;24.60;99.90
18876;DHT22;9570;50.854;13.778;2023-06-14T08:04:25;24.50;99.90
18876;DHT22;9570;50.854;13.778;2023-06-14T08:06:50;24.50;99.90
18876;DHT22;9570;50.854;13.778;2023-06-14T08:09:16;24.70;99.90
18876;DHT22;9570;50.854;13.778;2023-06-14T08:11:41;24.70;99.90
18876;DHT22;9570;50.854;13.778;2023-06-14T08:14:07;24.80;99.90
18876;DHT22;9570;50.854;13.778;2023-06-14T08:16:33;25.30;99.90
18876;DHT22;9570;50.854;13.778;2023-06-14T08:18:58;25.50;99.90
18876;DHT22;9570;50.854;13.778;2023-06-14T08:21:24;25.30;99.90
18876;DHT22;9570;50.854;13.778;2023-06-14T08:23:54;25.50;99.90
18876;DHT22;9570;50.854;13.778;2023-06-14T08:26:20;24.60;99.90
18876;DHT22;9570;50.854;13.778;2023-06-14T08:28:46;23.20;99.90
18876;DHT22;9570;50.854;13.778;2023-06-14T08:31:11;22.90;99.90
18876;DHT22;9570;50.854;13.778;2023-06-14T08:33:38;23.40;99.90
18876;DHT22;9570;50.854;13.778;2023-06-14T08:36:04;23.50;99.90
18876;DHT22;9570;50.854;13.778;2023-06-14T08:38:30;23.40;99.90
18876;DHT22;9570;50.854;13.778;2023-06-14T08:40:57;22.30;99.90
18876;DHT22;9570;50.854;13.778;2023-06-14T08:43:23;22.20;99.90
18876;DHT22;9570;50.854;13.778;2023-06-14T08:45:53;22.20;99.90
18876;DHT22;9570;50.854;13.778;2023-06-14T08:48:25;23.00;99.90
18876;DHT22;9570;50.854;13.778;2023-06-14T08:50:54;22.10;99.90
18876;DHT22;9570;50.854;13.778;2023-06-14T08:53:27;21.80;99.90
18876;DHT22;9570;50.854;13.778;2023-06-14T08:55:54;22.10;99.90
18876;DHT22;9570;50.854;13.778;2023-06-14T08:58:20;22.10;99.90
18876;DHT22;9570;50.854;13.778;2023-06-14T09:00:49;22.30;99.90
18876;DHT22;9570;50.854;13.778;2023-06-14T09:03:15;22.40;99.90
18876;DHT22;9570;50.854;13.778;2023-06-14T09:05:42;22.60;99.90
18876;DHT22;9570;50.854;13.778;2023-06-14T09:08:09;22.30;99.90
18876;DHT22;9570;50.854;13.778;2023-06-14T09:10:36;22.00;99.90
18876;DHT22;9570;50.854;13.778;2023-06-14T09:13:03;22.60;99.90
18876;DHT22;9570;50.854;13.778;2023-06-14T09:15:30;23.30;99.90
18876;DHT22;9570;50.854;13.778;2023-06-14T09:17:55;23.00;99.90
18876;DHT22;9570;50.854;13.778;2023-06-14T09:20:23;22.50;99.90
18876;DHT22;9570;50.854;13.778;2023-06-14T09:22:49;23.60;99.90
18876;DHT22;9570;50.854;13.778;2023-06-14T09:25:15;23.80;99.90
18876;DHT22;9570;50.854;13.778;2023-06-14T09:27:41;23.70;99.90
18876;DHT22;9570;50.854;13.778;2023-06-14T09:30:09;24.30;99.90
18876;DHT22;9570;50.854;13.778;2023-06-14T09:32:40;25.20;99.90
18876;DHT22;9570;50.854;13.778;2023-06-14T09:35:07;24.50;99.90
18876;DHT22;9570;50.854;13.778;2023-06-14T09:37:33;23.70;99.90
18876;DHT22;9570;50.854;13.778;2023-06-14T09:39:59;23.00;99.90
18876;DHT22;9570;50.854;13.778;2023-06-14T09:42:25;22.10;99.90
18876;DHT22;9570;50.854;13.778;2023-06-14T09:44:52;21.40;99.90
18876;DHT22;9570;50.854;13.778;2023-06-14T09:47:18;21.90;99.90
18876;DHT22;9570;50.854;13.778;2023-06-14T09:49:44;22.90;99.90
18876;DHT22;9570;50.854;13.778;2023-06-14T09:52:18;23.60;99.90
18876;DHT22;9570;50.854;13.778;2023-06-14T09:54:45;23.60;99.90
18876;DHT22;9570;50.854;13.778;2023-06-14T09:57:17;23.90;99.90
18876;DHT22;9570;50.854;13.778;2023-06-14T09:59:46;24.30;99.90
18876;DHT22;9570;50.854;13.778;2023-06-14T10:02:21;23.60;99.90
18876;DHT22;9570;50.854;13.778;2023-06-14T10:05:00;22.90;99.90
18876;DHT22;9570;50.854;13.778;2023-06-14T10:07:32;23.40;99.90
18876;DHT22;9570;50.854;13.778;2023-06-14T10:09:58;24.10;99.90
18876;DHT22;9570;50.854;13.778;2023-06-14T10:12:23;24.00;99.90
18876;DHT22;9570;50.854;13.778;2023-06-14T10:14:51;24.40;99.90
18876;DHT22;9570;50.854;13.778;2023-06-14T10:17:40;24.70;99.90
18876;DHT22;9570;50.854;13.778;2023-06-14T10:22:51;24.80;99.90
18876;DHT22;9570;50.854;13.778;2023-06-14T10:25:31;23.90;99.90
18876;DHT22;9570;50.854;13.778;2023-06-14T10:30:37;23.40;99.90
18876;DHT22;9570;50.854;13.778;2023-06-14T10:33:07;23.40;99.90
18876;DHT22;9570;50.854;13.778;2023-06-14T10:35:33;23.10;99.90
18876;DHT22;9570;50.854;13.778;2023-06-14T10:38:14;22.90;99.90
18876;DHT22;9570;50.854;13.778;2023-06-14T10:40:40;22.60;99.90
18876;DHT22;9570;50.854;13.778;2023-06-14T10:43:24;22.30;99.90
18876;DHT22;9570;50.854;13.778;2023-06-14T10:46:15;22.30;99.90
18876;DHT22;9570;50.854;13.778;2023-06-14T10:48:45;22.30;99.90
18876;DHT22;9570;50.854;13.778;2023-06-14T10:51:30;22.30;99.90
18876;DHT22;9570;50.854;13.778;2023-06-14T10:54:12;22.20;99.90
18876;DHT22;9570;50.854;13.778;2023-06-14T10:56:53;22.70;99.90
18876;DHT22;9570;50.854;13.778;2023-06-14T10:59:20;22.50;99.90
18876;DHT22;9570;50.854;13.778;2023-06-14T11:02:13;22.20;99.90
18876;DHT22;9570;50.854;13.778;2023-06-14T11:04:52;21.80;99.90
18876;DHT22;9570;50.854;13.778;2023-06-14T11:07:41;21.60;99.90
18876;DHT22;9570;50.854;13.778;2023-06-14T11:12:47;21.50;99.90
18876;DHT22;9570;50.854;13.778;2023-06-14T11:15:13;21.20;99.90
18876;DHT22;9570;50.854;13.778;2023-06-14T11:17:38;21.40;99.90
18876;DHT22;9570;50.854;13.778;2023-06-14T11:20:10;21.20;99.90
18876;DHT22;9570;50.854;13.778;2023-06-14T11:22:43;21.10;99.90
18876;DHT22;9570;50.854;13.778;2023-06-14T11:25:10;21.20;99.90
18876;DHT22;9570;50.854;13.778;2023-06-14T11:27:35;20.90;99.90
18876;DHT22;9570;50.854;13.778;2023-06-14T11:30:01;20.70;99.90
18876;DHT22;9570;50.854;13.778;2023-06-14T11:32:27;20.90;99.90
18876;DHT22;9570;50.854;13.778;2023-06-14T11:34:52;20.90;99.90
18876;DHT22;9570;50.854;13.778;2023-06-14T11:37:18;20.40;99.90
18876;DHT22;9570;50.854;13.778;2023-06-14T11:39:44;20.50;99.90
18876;DHT22;9570;50.854;13.778;2023-06-14T11:42:15;20.40;99.90
18876;DHT22;9570;50.854;13.778;2023-06-14T11:44:40;20.50;99.90
18876;DHT22;9570;50.854;13.778;2023-06-14T11:47:06;20.60;99.90
18876;DHT22;9570;50.854;13.778;2023-06-14T11:49:35;20.50;99.90
18876;DHT22;9570;50.854;13.778;2023-06-14T11:52:01;20.40;99.90
18876;DHT22;9570;50.854;13.778;2023-06-14T11:54:27;20.30;99.90
18876;DHT22;9570;50.854;13.778;2023-06-14T11:56:52;19.80;99.90
18876;DHT22;9570;50.854;13.778;2023-06-14T11:59:18;19.50;99.90
18876;DHT22;9570;50.854;13.778;2023-06-14T12:01:45;19.40;99.90
18876;DHT22;9570;50.854;13.778;2023-06-14T12:04:10;19.40;99.90
18876;DHT22;9570;50.854;13.778;2023-06-14T12:06:36;19.30;99.90
18876;DHT22;9570;50.854;13.778;2023-06-14T12:09:06;19.10;99.90
18876;DHT22;9570;50.854;13.778;2023-06-14T12:11:38;19.00;99.90
18876;DHT22;9570;50.854;13.778;2023-06-14T12:14:04;19.00;99.90
18876;DHT22;9570;50.854;13.778;2023-06-14T12:16:34;19.20;99.90
18876;DHT22;9570;50.854;13.778;2023-06-14T12:19:08;19.20;99.90
18876;DHT22;9570;50.854;13.778;2023-06-14T12:21:37;19.20;99.90
18876;DHT22;9570;50.854;13.778;2023-06-14T12:24:04;19.20;99.90
18876;DHT22;9570;50.854;13.778;2023-06-14T12:26:32;19.40;99.90
18876;DHT22;9570;50.854;13.778;2023-06-14T12:28:57;19.50;99.90
18876;DHT22;9570;50.854;13.778;2023-06-14T12:31:23;19.70;99.90
18876;DHT22;9570;50.854;13.778;2023-06-14T12:33:49;19.70;99.90
18876;DHT22;9570;50.854;13.778;2023-06-14T12:36:16;19.70;99.90
18876;DHT22;9570;50.854;13.778;2023-06-14T12:38:42;19.50;99.90
18876;DHT22;9570;50.854;13.778;2023-06-14T12:41:08;19.40;99.90
18876;DHT22;9570;50.854;13.778;2023-06-14T12:43:33;19.30;99.90
18876;DHT22;9570;50.854;13.778;2023-06-14T12:45:59;19.20;99.90
18876;DHT22;9570;50.854;13.778;2023-06-14T12:48:25;19.00;99.90
18876;DHT22;9570;50.854;13.778;2023-06-14T12:50:52;19.10;99.90
18876;DHT22;9570;50.854;13.778;2023-06-14T12:53:18;19.10;99.90
18876;DHT22;9570;50.854;13.778;2023-06-14T12:55:43;19.10;99.90
18876;DHT22;9570;50.854;13.778;2023-06-14T12:58:09;19.30;99.90
18876;DHT22;9570;50.854;13.778;2023-06-14T13:00:35;19.40;99.90
18876;DHT22;9570;50.854;13.778;2023-06-14T13:03:00;19.70;99.90
18876;DHT22;9570;50.854;13.778;2023-06-14T13:05:26;19.50;99.90
18876;DHT22;9570;50.854;13.778;2023-06-14T13:07:51;19.30;99.90
18876;DHT22;9570;50.854;13.778;2023-06-14T13:10:17;19.20;99.90
18876;DHT22;9570;50.854;13.778;2023-06-14T13:12:43;19.10;99.90
18876;DHT22;9570;50.854;13.778;2023-06-14T13:15:09;19.10;99.90
18876;DHT22;9570;50.854;13.778;2023-06-14T13:17:35;19.30;99.90
18876;DHT22;9570;50.854;13.778;2023-06-14T13:20:07;19.60;99.90
18876;DHT22;9570;50.854;13.778;2023-06-14T13:22:34;19.60;99.90
18876;DHT22;9570;50.854;13.778;2023-06-14T13:24:59;19.60;99.90
18876;DHT22;9570;50.854;13.778;2023-06-14T13:27:26;19.70;99.90
18876;DHT22;9570;50.854;13.778;2023-06-14T13:29:52;19.90;99.90
18876;DHT22;9570;50.854;13.778;2023-06-14T13:32:17;19.90;99.90
18876;DHT22;9570;50.854;13.778;2023-06-14T13:34:43;20.00;99.90
18876;DHT22;9570;50.854;13.778;2023-06-14T13:37:08;20.20;99.90
18876;DHT22;9570;50.854;13.778;2023-06-14T13:39:34;20.40;99.90
18876;DHT22;9570;50.854;13.778;2023-06-14T13:42:02;20.40;99.90
18876;DHT22;9570;50.854;13.778;2023-06-14T13:44:28;20.20;99.90
18876;DHT22;9570;50.854;13.778;2023-06-14T13:46:53;20.10;99.90
18876;DHT22;9570;50.854;13.778;2023-06-14T13:49:19;19.90;99.90
18876;DHT22;9570;50.854;13.778;2023-06-14T13:51:44;19.90;99.90
18876;DHT22;9570;50.854;13.778;2023-06-14T13:54:13;19.90;99.90
18876;DHT22;9570;50.854;13.778;2023-06-14T13:56:39;20.10;99.90
18876;DHT22;9570;50.854;13.778;2023-06-14T13:59:05;20.30;99.90
18876;DHT22;9570;50.854;13.778;2023-06-14T14:01:30;20.40;99.90
18876;DHT22;9570;50.854;13.778;2023-06-14T14:03:56;20.20;99.90
18876;DHT22;9570;50.854;13.778;2023-06-14T14:06:21;20.10;99.90
18876;DHT22;9570;50.854;13.778;2023-06-14T14:08:47;20.00;99.90
18876;DHT22;9570;50.854;13.778;2023-06-14T14:11:13;20.10;99.90
18876;DHT22;9570;50.854;13.778;2023-06-14T14:13:38;20.10;99.90
18876;DHT22;9570;50.854;13.778;2023-06-14T14:16:06;20.30;99.90
18876;DHT22;9570;50.854;13.778;2023-06-14T14:18:31;20.50;99.90
18876;DHT22;9570;50.854;13.778;2023-06-14T14:20:58;20.60;99.90
18876;DHT22;9570;50.854;13.778;2023-06-14T14:23:23;20.50;99.90
18876;DHT22;9570;50.854;13.778;2023-06-14T14:25:49;20.30;99.90
18876;DHT22;9570;50.854;13.778;2023-06-14T14:28:14;19.90;99.90
18876;DHT22;9570;50.854;13.778;2023-06-14T14:30:41;19.70;99.90
18876;DHT22;9570;50.854;13.778;2023-06-14T14:33:07;19.40;99.90
18876;DHT22;9570;50.854;13.778;2023-06-14T14:35:33;19.20;99.90
18876;DHT22;9570;50.854;13.778;2023-06-14T14:37:58;19.10;99.90
18876;DHT22;9570;50.854;13.778;2023-06-14T14:40:24;19.10;99.90
18876;DHT22;9570;50.854;13.778;2023-06-14T14:42:50;19.40;99.90
18876;DHT22;9570;50.854;13.778;2023-06-14T14:45:15;19.60;99.90
18876;DHT22;9570;50.854;13.778;2023-06-14T14:47:41;19.90;99.90
18876;DHT22;9570;50.854;13.778;2023-06-14T14:50:06;20.00;99.90
18876;DHT22;9570;50.854;13.778;2023-06-14T14:52:34;20.00;99.90
18876;DHT22;9570;50.854;13.778;2023-06-14T14:55:00;19.80;99.90
18876;DHT22;9570;50.854;13.778;2023-06-14T14:57:26;19.80;99.90
18876;DHT22;9570;50.854;13.778;2023-06-14T14:59:52;19.70;99.90
18876;DHT22;9570;50.854;13.778;2023-06-14T15:02:17;19.70;99.90
18876;DHT22;9570;50.854;13.778;2023-06-14T15:04:43;19.80;99.90
18876;DHT22;9570;50.854;13.778;2023-06-14T15:07:08;20.00;99.90
18876;DHT22;9570;50.854;13.778;2023-06-14T15:09:34;20.00;99.90
18876;DHT22;9570;50.854;13.778;2023-06-14T15:12:00;20.00;99.90
18876;DHT22;9570;50.854;13.778;2023-06-14T15:14:25;20.10;99.90
18876;DHT22;9570;50.854;13.778;2023-06-14T15:16:51;20.10;99.90
18876;DHT22;9570;50.854;13.778;2023-06-14T15:19:18;20.00;99.90
18876;DHT22;9570;50.854;13.778;2023-06-14T15:21:43;19.90;99.90
18876;DHT22;9570;50.854;13.778;2023-06-14T15:24:09;19.80;99.90
18876;DHT22;9570;50.854;13.778;2023-06-14T15:26:34;19.80;99.90
18876;DHT22;9570;50.854;13.778;2023-06-14T15:29:00;19.80;99.90
18876;DHT22;9570;50.854;13.778;2023-06-14T15:31:25;19.70;99.90
18876;DHT22;9570;50.854;13.778;2023-06-14T15:33:53;19.70;99.90
18876;DHT22;9570;50.854;13.778;2023-06-14T15:36:18;19.60;99.90
18876;DHT22;9570;50.854;13.778;2023-06-14T15:38:44;19.60;99.90
18876;DHT22;9570;50.854;13.778;2023-06-14T15:41:10;19.50;99.90
18876;DHT22;9570;50.854;13.778;2023-06-14T15:43:35;19.60;99.90
18876;DHT22;9570;50.854;13.778;2023-06-14T15:46:01;19.50;99.90
18876;DHT22;9570;50.854;13.778;2023-06-14T15:48:26;19.50;99.90